sensor_id;sensor_type;location;lat;lon;timestamp;P1;durP1;ratioP1;P2;durP2;ratioP2
75311;SDS011;63906;55.686;37.532;2023-11-19T00:03:40;6.00;;;3.17;;
75311;SDS011;63906;55.686;37.532;2023-11-19T00:08:41;9.60;;;3.37;;
75311;SDS011;63906;55.686;37.532;2023-11-19T00:13:41;7.20;;;3.00;;
75311;SDS011;63906;55.686;37.532;2023-11-19T00:18:42;6.07;;;2.80;;
75311;SDS011;63906;55.686;37.532;2023-11-19T00:23:42;7.37;;;3.07;;
75311;SDS011;63906;55.686;37.532;2023-11-19T00:28:43;6.32;;;3.50;;
75311;SDS011;63906;55.686;37.532;2023-11-19T00:33:43;8.00;;;3.07;;
75311;SDS011;63906;55.686;37.532;2023-11-19T00:38:44;5.27;;;3.07;;
75311;SDS011;63906;55.686;37.532;2023-11-19T00:43:45;5.88;;;2.83;;
75311;SDS011;63906;55.686;37.532;2023-11-19T00:48:45;6.72;;;3.10;;
75311;SDS011;63906;55.686;37.532;2023-11-19T00:53:47;7.32;;;3.13;;
75311;SDS011;63906;55.686;37.532;2023-11-19T00:58:47;11.50;;;3.80;;
75311;SDS011;63906;55.686;37.532;2023-11-19T01:03:48;9.60;;;3.53;;
75311;SDS011;63906;55.686;37.532;2023-11-19T01:08:48;6.45;;;3.17;;
75311;SDS011;63906;55.686;37.532;2023-11-19T01:13:49;6.47;;;3.20;;
75311;SDS011;63906;55.686;37.532;2023-11-19T01:18:50;6.13;;;2.90;;
75311;SDS011;63906;55.686;37.532;2023-11-19T01:23:50;6.37;;;3.53;;
75311;SDS011;63906;55.686;37.532;2023-11-19T01:28:50;11.90;;;3.67;;
75311;SDS011;63906;55.686;37.532;2023-11-19T01:33:52;7.35;;;3.20;;
75311;SDS011;63906;55.686;37.532;2023-11-19T01:38:53;5.47;;;2.90;;
75311;SDS011;63906;55.686;37.532;2023-11-19T01:43:53;6.67;;;3.47;;
75311;SDS011;63906;55.686;37.532;2023-11-19T01:48:54;4.60;;;2.88;;
75311;SDS011;63906;55.686;37.532;2023-11-19T01:53:55;7.05;;;3.10;;
75311;SDS011;63906;55.686;37.532;2023-11-19T01:58:58;7.40;;;2.97;;
75311;SDS011;63906;55.686;37.532;2023-11-19T02:03:59;5.22;;;3.17;;
75311;SDS011;63906;55.686;37.532;2023-11-19T02:09:00;6.60;;;3.28;;
75311;SDS011;63906;55.686;37.532;2023-11-19T02:14:01;7.30;;;3.10;;
75311;SDS011;63906;55.686;37.532;2023-11-19T02:19:03;5.65;;;3.15;;
75311;SDS011;63906;55.686;37.532;2023-11-19T02:24:06;7.88;;;3.45;;
75311;SDS011;63906;55.686;37.532;2023-11-19T02:29:11;8.10;;;3.88;;
75311;SDS011;63906;55.686;37.532;2023-11-19T02:34:13;8.50;;;4.38;;
75311;SDS011;63906;55.686;37.532;2023-11-19T02:39:13;7.10;;;3.70;;
75311;SDS011;63906;55.686;37.532;2023-11-19T02:44:14;5.75;;;3.40;;
75311;SDS011;63906;55.686;37.532;2023-11-19T02:49:15;9.15;;;3.50;;
75311;SDS011;63906;55.686;37.532;2023-11-19T02:54:16;6.10;;;3.13;;
75311;SDS011;63906;55.686;37.532;2023-11-19T02:59:17;6.18;;;3.20;;
75311;SDS011;63906;55.686;37.532;2023-11-19T03:04:27;9.32;;;3.88;;
75311;SDS011;63906;55.686;37.532;2023-11-19T03:09:28;11.05;;;4.05;;
75311;SDS011;63906;55.686;37.532;2023-11-19T03:14:29;5.72;;;4.13;;
75311;SDS011;63906;55.686;37.532;2023-11-19T03:19:31;8.85;;;4.05;;
75311;SDS011;63906;55.686;37.532;2023-11-19T03:24:31;7.95;;;3.55;;
75311;SDS011;63906;55.686;37.532;2023-11-19T03:29:32;7.35;;;3.40;;
75311;SDS011;63906;55.686;37.532;2023-11-19T03:34:32;7.03;;;3.77;;
75311;SDS011;63906;55.686;37.532;2023-11-19T03:39:33;9.73;;;4.35;;
75311;SDS011;63906;55.686;37.532;2023-11-19T03:44:33;11.33;;;4.40;;
75311;SDS011;63906;55.686;37.532;2023-11-19T03:49:34;9.80;;;4.33;;
75311;SDS011;63906;55.686;37.532;2023-11-19T03:54:34;9.67;;;4.17;;
75311;SDS011;63906;55.686;37.532;2023-11-19T03:59:35;11.15;;;4.13;;
75311;SDS011;63906;55.686;37.532;2023-11-19T04:04:36;8.90;;;4.53;;
75311;SDS011;63906;55.686;37.532;2023-11-19T04:09:37;8.05;;;4.13;;
75311;SDS011;63906;55.686;37.532;2023-11-19T04:14:38;7.13;;;3.93;;
75311;SDS011;63906;55.686;37.532;2023-11-19T04:19:38;12.20;;;4.50;;
75311;SDS011;63906;55.686;37.532;2023-11-19T04:24:41;11.38;;;4.30;;
75311;SDS011;63906;55.686;37.532;2023-11-19T04:29:44;7.70;;;3.80;;
75311;SDS011;63906;55.686;37.532;2023-11-19T04:34:47;12.27;;;5.15;;
75311;SDS011;63906;55.686;37.532;2023-11-19T04:39:47;10.73;;;4.87;;
75311;SDS011;63906;55.686;37.532;2023-11-19T04:44:47;11.83;;;4.87;;
75311;SDS011;63906;55.686;37.532;2023-11-19T04:49:48;11.67;;;5.90;;
75311;SDS011;63906;55.686;37.532;2023-11-19T04:54:48;10.47;;;5.37;;
75311;SDS011;63906;55.686;37.532;2023-11-19T04:59:49;12.13;;;5.53;;
75311;SDS011;63906;55.686;37.532;2023-11-19T05:04:49;9.13;;;3.88;;
75311;SDS011;63906;55.686;37.532;2023-11-19T05:09:50;8.27;;;4.15;;
75311;SDS011;63906;55.686;37.532;2023-11-19T05:14:50;10.30;;;5.03;;
75311;SDS011;63906;55.686;37.532;2023-11-19T05:19:51;10.75;;;5.18;;
75311;SDS011;63906;55.686;37.532;2023-11-19T05:24:52;16.55;;;6.60;;
75311;SDS011;63906;55.686;37.532;2023-11-19T05:29:52;13.73;;;5.47;;
75311;SDS011;63906;55.686;37.532;2023-11-19T05:34:53;8.77;;;5.90;;
75311;SDS011;63906;55.686;37.532;2023-11-19T05:39:53;19.13;;;6.90;;
75311;SDS011;63906;55.686;37.532;2023-11-19T05:49:57;12.25;;;6.07;;
75311;SDS011;63906;55.686;37.532;2023-11-19T05:55:01;13.27;;;6.43;;
75311;SDS011;63906;55.686;37.532;2023-11-19T06:00:06;13.65;;;6.85;;
75311;SDS011;63906;55.686;37.532;2023-11-19T06:05:08;11.88;;;5.80;;
75311;SDS011;63906;55.686;37.532;2023-11-19T06:10:09;11.00;;;7.10;;
75311;SDS011;63906;55.686;37.532;2023-11-19T06:15:11;16.52;;;6.68;;
75311;SDS011;63906;55.686;37.532;2023-11-19T06:20:11;13.77;;;6.83;;
75311;SDS011;63906;55.686;37.532;2023-11-19T06:25:12;13.32;;;6.28;;
75311;SDS011;63906;55.686;37.532;2023-11-19T06:30:14;12.68;;;6.88;;
75311;SDS011;63906;55.686;37.532;2023-11-19T06:35:15;12.80;;;7.10;;
75311;SDS011;63906;55.686;37.532;2023-11-19T06:40:15;11.70;;;6.13;;
75311;SDS011;63906;55.686;37.532;2023-11-19T06:45:16;12.95;;;6.40;;
75311;SDS011;63906;55.686;37.532;2023-11-19T06:50:17;15.48;;;7.20;;
75311;SDS011;63906;55.686;37.532;2023-11-19T06:55:18;12.05;;;6.78;;
75311;SDS011;63906;55.686;37.532;2023-11-19T07:00:18;13.27;;;6.40;;
75311;SDS011;63906;55.686;37.532;2023-11-19T07:05:19;16.73;;;6.93;;
75311;SDS011;63906;55.686;37.532;2023-11-19T07:10:19;10.73;;;5.97;;
75311;SDS011;63906;55.686;37.532;2023-11-19T07:15:20;16.07;;;6.77;;
75311;SDS011;63906;55.686;37.532;2023-11-19T07:20:20;16.60;;;7.78;;
75311;SDS011;63906;55.686;37.532;2023-11-19T07:25:21;18.43;;;7.30;;
75311;SDS011;63906;55.686;37.532;2023-11-19T07:30:22;13.67;;;6.90;;
75311;SDS011;63906;55.686;37.532;2023-11-19T07:35:22;14.52;;;6.57;;
75311;SDS011;63906;55.686;37.532;2023-11-19T07:40:23;14.13;;;7.00;;
75311;SDS011;63906;55.686;37.532;2023-11-19T07:45:24;13.85;;;6.78;;
75311;SDS011;63906;55.686;37.532;2023-11-19T07:50:24;11.53;;;5.93;;
75311;SDS011;63906;55.686;37.532;2023-11-19T07:55:25;10.90;;;6.68;;
75311;SDS011;63906;55.686;37.532;2023-11-19T08:00:27;13.18;;;6.40;;
75311;SDS011;63906;55.686;37.532;2023-11-19T08:05:27;14.97;;;6.80;;
75311;SDS011;63906;55.686;37.532;2023-11-19T08:10:28;12.30;;;5.50;;
75311;SDS011;63906;55.686;37.532;2023-11-19T08:15:29;11.75;;;6.65;;
75311;SDS011;63906;55.686;37.532;2023-11-19T08:20:30;12.02;;;7.20;;
75311;SDS011;63906;55.686;37.532;2023-11-19T08:25:31;12.30;;;6.90;;
75311;SDS011;63906;55.686;37.532;2023-11-19T08:30:33;14.82;;;7.05;;
75311;SDS011;63906;55.686;37.532;2023-11-19T08:35:34;13.60;;;7.23;;
75311;SDS011;63906;55.686;37.532;2023-11-19T08:40:34;17.33;;;7.90;;
75311;SDS011;63906;55.686;37.532;2023-11-19T08:45:34;14.20;;;7.07;;
75311;SDS011;63906;55.686;37.532;2023-11-19T08:50:36;15.15;;;8.40;;
75311;SDS011;63906;55.686;37.532;2023-11-19T08:55:36;16.33;;;7.67;;
75311;SDS011;63906;55.686;37.532;2023-11-19T09:00:37;10.10;;;5.07;;
75311;SDS011;63906;55.686;37.532;2023-11-19T09:05:38;13.45;;;5.18;;
75311;SDS011;63906;55.686;37.532;2023-11-19T09:10:38;10.88;;;5.57;;
75311;SDS011;63906;55.686;37.532;2023-11-19T09:15:39;10.43;;;5.03;;
75311;SDS011;63906;55.686;37.532;2023-11-19T09:20:39;13.13;;;6.30;;
75311;SDS011;63906;55.686;37.532;2023-11-19T09:25:39;11.77;;;4.97;;
75311;SDS011;63906;55.686;37.532;2023-11-19T09:30:41;8.13;;;5.00;;
75311;SDS011;63906;55.686;37.532;2023-11-19T09:35:41;12.53;;;5.33;;
75311;SDS011;63906;55.686;37.532;2023-11-19T09:40:41;13.23;;;6.10;;
75311;SDS011;63906;55.686;37.532;2023-11-19T09:45:49;11.68;;;6.15;;
75311;SDS011;63906;55.686;37.532;2023-11-19T09:50:50;10.75;;;6.00;;
75311;SDS011;63906;55.686;37.532;2023-11-19T09:55:52;12.07;;;6.32;;
75311;SDS011;63906;55.686;37.532;2023-11-19T10:00:53;9.73;;;5.85;;
75311;SDS011;63906;55.686;37.532;2023-11-19T10:05:54;13.70;;;5.97;;
75311;SDS011;63906;55.686;37.532;2023-11-19T10:10:55;11.95;;;5.45;;
75311;SDS011;63906;55.686;37.532;2023-11-19T10:15:56;9.20;;;5.30;;
75311;SDS011;63906;55.686;37.532;2023-11-19T10:21:00;10.18;;;5.20;;
75311;SDS011;63906;55.686;37.532;2023-11-19T10:26:03;9.97;;;5.87;;
75311;SDS011;63906;55.686;37.532;2023-11-19T10:31:07;12.50;;;5.80;;
75311;SDS011;63906;55.686;37.532;2023-11-19T10:36:07;11.60;;;4.70;;
75311;SDS011;63906;55.686;37.532;2023-11-19T10:41:08;8.80;;;5.03;;
75311;SDS011;63906;55.686;37.532;2023-11-19T10:46:09;13.40;;;5.70;;
75311;SDS011;63906;55.686;37.532;2023-11-19T10:51:10;12.27;;;5.32;;
75311;SDS011;63906;55.686;37.532;2023-11-19T10:56:21;8.88;;;4.72;;
75311;SDS011;63906;55.686;37.532;2023-11-19T11:01:26;11.48;;;5.18;;
75311;SDS011;63906;55.686;37.532;2023-11-19T11:06:34;9.25;;;5.22;;
75311;SDS011;63906;55.686;37.532;2023-11-19T11:11:35;8.02;;;4.63;;
75311;SDS011;63906;55.686;37.532;2023-11-19T11:16:35;8.25;;;5.00;;
75311;SDS011;63906;55.686;37.532;2023-11-19T11:21:41;10.77;;;5.53;;
75311;SDS011;63906;55.686;37.532;2023-11-19T11:37:46;10.77;;;5.65;;
75311;SDS011;63906;55.686;37.532;2023-11-19T11:42:51;9.88;;;5.53;;
75311;SDS011;63906;55.686;37.532;2023-11-19T11:57:59;9.75;;;5.40;;
75311;SDS011;63906;55.686;37.532;2023-11-19T12:03:01;10.18;;;5.40;;
75311;SDS011;63906;55.686;37.532;2023-11-19T12:08:05;11.98;;;6.25;;
75311;SDS011;63906;55.686;37.532;2023-11-19T12:13:07;8.38;;;4.80;;
75311;SDS011;63906;55.686;37.532;2023-11-19T12:18:07;11.17;;;4.93;;
75311;SDS011;63906;55.686;37.532;2023-11-19T12:23:08;9.88;;;5.03;;
75311;SDS011;63906;55.686;37.532;2023-11-19T12:28:13;9.18;;;5.18;;
75311;SDS011;63906;55.686;37.532;2023-11-19T12:33:14;6.97;;;4.22;;
75311;SDS011;63906;55.686;37.532;2023-11-19T12:38:19;7.13;;;4.40;;
75311;SDS011;63906;55.686;37.532;2023-11-19T12:43:24;8.32;;;4.15;;
75311;SDS011;63906;55.686;37.532;2023-11-19T12:48:24;10.83;;;5.40;;
75311;SDS011;63906;55.686;37.532;2023-11-19T12:53:25;8.50;;;4.57;;
75311;SDS011;63906;55.686;37.532;2023-11-19T12:58:28;13.00;;;6.18;;
75311;SDS011;63906;55.686;37.532;2023-11-19T13:03:31;10.45;;;5.82;;
75311;SDS011;63906;55.686;37.532;2023-11-19T13:08:40;16.70;;;7.63;;
75311;SDS011;63906;55.686;37.532;2023-11-19T13:19:01;16.90;;;7.43;;
75311;SDS011;63906;55.686;37.532;2023-11-19T13:24:01;18.10;;;8.55;;
75311;SDS011;63906;55.686;37.532;2023-11-19T13:29:02;17.98;;;8.27;;
75311;SDS011;63906;55.686;37.532;2023-11-19T13:34:03;16.65;;;8.02;;
75311;SDS011;63906;55.686;37.532;2023-11-19T13:39:03;17.13;;;7.33;;
75311;SDS011;63906;55.686;37.532;2023-11-19T13:44:04;20.10;;;8.63;;
75311;SDS011;63906;55.686;37.532;2023-11-19T13:49:04;15.52;;;8.25;;
75311;SDS011;63906;55.686;37.532;2023-11-19T13:54:05;17.53;;;7.87;;
75311;SDS011;63906;55.686;37.532;2023-11-19T13:59:05;19.05;;;8.50;;
75311;SDS011;63906;55.686;37.532;2023-11-19T14:04:08;23.83;;;9.07;;
75311;SDS011;63906;55.686;37.532;2023-11-19T14:09:09;19.17;;;9.45;;
75311;SDS011;63906;55.686;37.532;2023-11-19T14:14:10;18.40;;;9.23;;
75311;SDS011;63906;55.686;37.532;2023-11-19T14:19:10;18.03;;;8.03;;
75311;SDS011;63906;55.686;37.532;2023-11-19T14:24:11;22.63;;;9.30;;
75311;SDS011;63906;55.686;37.532;2023-11-19T14:29:11;17.33;;;8.43;;
75311;SDS011;63906;55.686;37.532;2023-11-19T14:34:12;19.63;;;8.30;;
75311;SDS011;63906;55.686;37.532;2023-11-19T14:39:12;14.37;;;7.20;;
75311;SDS011;63906;55.686;37.532;2023-11-19T14:44:13;17.58;;;8.20;;
75311;SDS011;63906;55.686;37.532;2023-11-19T14:49:14;19.00;;;8.60;;
75311;SDS011;63906;55.686;37.532;2023-11-19T14:54:14;20.00;;;8.43;;
75311;SDS011;63906;55.686;37.532;2023-11-19T14:59:15;15.05;;;7.60;;
75311;SDS011;63906;55.686;37.532;2023-11-19T15:04:16;23.17;;;8.93;;
75311;SDS011;63906;55.686;37.532;2023-11-19T15:09:17;17.80;;;7.70;;
75311;SDS011;63906;55.686;37.532;2023-11-19T15:14:18;16.15;;;7.53;;
75311;SDS011;63906;55.686;37.532;2023-11-19T15:19:18;15.18;;;7.03;;
75311;SDS011;63906;55.686;37.532;2023-11-19T15:24:21;19.58;;;8.35;;
75311;SDS011;63906;55.686;37.532;2023-11-19T15:29:22;16.35;;;8.02;;
75311;SDS011;63906;55.686;37.532;2023-11-19T15:34:23;19.08;;;8.43;;
75311;SDS011;63906;55.686;37.532;2023-11-19T15:39:25;23.40;;;9.43;;
75311;SDS011;63906;55.686;37.532;2023-11-19T15:44:27;20.23;;;9.60;;
75311;SDS011;63906;55.686;37.532;2023-11-19T15:49:28;16.48;;;8.30;;
75311;SDS011;63906;55.686;37.532;2023-11-19T15:54:29;21.73;;;9.30;;
75311;SDS011;63906;55.686;37.532;2023-11-19T15:59:30;19.67;;;8.63;;
75311;SDS011;63906;55.686;37.532;2023-11-19T16:04:31;19.83;;;8.88;;
75311;SDS011;63906;55.686;37.532;2023-11-19T16:09:31;22.70;;;10.43;;
75311;SDS011;63906;55.686;37.532;2023-11-19T16:14:32;25.10;;;10.98;;
75311;SDS011;63906;55.686;37.532;2023-11-19T16:19:33;27.80;;;12.00;;
75311;SDS011;63906;55.686;37.532;2023-11-19T16:24:36;24.77;;;11.07;;
75311;SDS011;63906;55.686;37.532;2023-11-19T16:29:37;26.23;;;11.07;;
75311;SDS011;63906;55.686;37.532;2023-11-19T16:34:38;23.45;;;10.60;;
75311;SDS011;63906;55.686;37.532;2023-11-19T16:39:42;23.23;;;11.18;;
75311;SDS011;63906;55.686;37.532;2023-11-19T16:44:43;25.33;;;10.65;;
75311;SDS011;63906;55.686;37.532;2023-11-19T16:49:44;25.23;;;11.90;;
75311;SDS011;63906;55.686;37.532;2023-11-19T16:54:45;26.07;;;10.87;;
75311;SDS011;63906;55.686;37.532;2023-11-19T16:59:45;24.63;;;10.70;;
75311;SDS011;63906;55.686;37.532;2023-11-19T17:04:48;25.23;;;11.13;;
75311;SDS011;63906;55.686;37.532;2023-11-19T17:09:48;21.35;;;10.65;;
75311;SDS011;63906;55.686;37.532;2023-11-19T17:14:49;26.90;;;12.00;;
75311;SDS011;63906;55.686;37.532;2023-11-19T17:19:49;26.13;;;10.53;;
75311;SDS011;63906;55.686;37.532;2023-11-19T17:24:50;21.60;;;9.63;;
75311;SDS011;63906;55.686;37.532;2023-11-19T17:29:50;25.57;;;10.57;;
75311;SDS011;63906;55.686;37.532;2023-11-19T17:34:51;26.87;;;12.10;;
75311;SDS011;63906;55.686;37.532;2023-11-19T17:39:51;26.30;;;10.77;;
75311;SDS011;63906;55.686;37.532;2023-11-19T17:44:52;22.87;;;10.17;;
75311;SDS011;63906;55.686;37.532;2023-11-19T17:49:53;24.38;;;10.18;;
75311;SDS011;63906;55.686;37.532;2023-11-19T17:54:54;26.00;;;10.70;;
75311;SDS011;63906;55.686;37.532;2023-11-19T17:59:54;28.42;;;11.38;;
75311;SDS011;63906;55.686;37.532;2023-11-19T18:04:55;25.48;;;9.48;;
75311;SDS011;63906;55.686;37.532;2023-11-19T18:09:57;21.77;;;9.63;;
75311;SDS011;63906;55.686;37.532;2023-11-19T18:14:57;23.90;;;10.45;;
75311;SDS011;63906;55.686;37.532;2023-11-19T18:19:58;23.77;;;9.80;;
75311;SDS011;63906;55.686;37.532;2023-11-19T18:24:58;24.25;;;10.98;;
75311;SDS011;63906;55.686;37.532;2023-11-19T18:30:00;24.55;;;10.38;;
75311;SDS011;63906;55.686;37.532;2023-11-19T18:35:00;21.17;;;9.32;;
75311;SDS011;63906;55.686;37.532;2023-11-19T18:40:01;24.63;;;10.60;;
75311;SDS011;63906;55.686;37.532;2023-11-19T18:45:02;24.60;;;10.77;;
75311;SDS011;63906;55.686;37.532;2023-11-19T18:50:04;28.40;;;10.52;;
75311;SDS011;63906;55.686;37.532;2023-11-19T19:01:21;24.15;;;9.93;;
75311;SDS011;63906;55.686;37.532;2023-11-19T19:06:41;23.05;;;10.13;;
75311;SDS011;63906;55.686;37.532;2023-11-19T19:12:05;23.42;;;10.18;;
75311;SDS011;63906;55.686;37.532;2023-11-19T19:17:06;26.17;;;10.93;;
75311;SDS011;63906;55.686;37.532;2023-11-19T19:22:08;22.52;;;8.88;;
75311;SDS011;63906;55.686;37.532;2023-11-19T19:27:09;20.52;;;10.27;;
75311;SDS011;63906;55.686;37.532;2023-11-19T19:32:09;20.87;;;9.77;;
75311;SDS011;63906;55.686;37.532;2023-11-19T19:37:10;26.77;;;10.37;;
75311;SDS011;63906;55.686;37.532;2023-11-19T19:42:10;20.70;;;8.93;;
75311;SDS011;63906;55.686;37.532;2023-11-19T19:47:12;23.95;;;9.18;;
75311;SDS011;63906;55.686;37.532;2023-11-19T19:52:12;25.20;;;10.93;;
75311;SDS011;63906;55.686;37.532;2023-11-19T19:57:13;22.40;;;10.23;;
75311;SDS011;63906;55.686;37.532;2023-11-19T20:02:13;21.53;;;8.57;;
75311;SDS011;63906;55.686;37.532;2023-11-19T20:07:14;22.87;;;9.40;;
75311;SDS011;63906;55.686;37.532;2023-11-19T20:12:16;21.73;;;8.48;;
75311;SDS011;63906;55.686;37.532;2023-11-19T20:17:17;23.30;;;10.40;;
75311;SDS011;63906;55.686;37.532;2023-11-19T20:22:19;22.63;;;9.60;;
75311;SDS011;63906;55.686;37.532;2023-11-19T20:27:19;22.13;;;9.03;;
75311;SDS011;63906;55.686;37.532;2023-11-19T20:32:21;19.98;;;9.57;;
75311;SDS011;63906;55.686;37.532;2023-11-19T20:37:22;24.52;;;9.68;;
75311;SDS011;63906;55.686;37.532;2023-11-19T20:42:22;22.25;;;8.23;;
75311;SDS011;63906;55.686;37.532;2023-11-19T20:47:23;24.70;;;9.63;;
75311;SDS011;63906;55.686;37.532;2023-11-19T20:52:23;24.23;;;9.38;;
75311;SDS011;63906;55.686;37.532;2023-11-19T20:57:24;21.45;;;8.70;;
75311;SDS011;63906;55.686;37.532;2023-11-19T21:02:25;24.75;;;8.27;;
75311;SDS011;63906;55.686;37.532;2023-11-19T21:07:25;20.20;;;8.93;;
75311;SDS011;63906;55.686;37.532;2023-11-19T21:12:27;16.20;;;7.72;;
75311;SDS011;63906;55.686;37.532;2023-11-19T21:17:28;16.88;;;6.85;;
75311;SDS011;63906;55.686;37.532;2023-11-19T21:22:28;17.42;;;8.32;;
75311;SDS011;63906;55.686;37.532;2023-11-19T21:27:39;18.80;;;6.88;;
75311;SDS011;63906;55.686;37.532;2023-11-19T21:33:38;15.13;;;8.25;;
75311;SDS011;63906;55.686;37.532;2023-11-19T21:40:14;15.77;;;6.60;;
75311;SDS011;63906;55.686;37.532;2023-11-19T21:46:30;19.65;;;8.70;;
75311;SDS011;63906;55.686;37.532;2023-11-19T21:51:37;19.55;;;8.48;;
75311;SDS011;63906;55.686;37.532;2023-11-19T21:56:40;19.73;;;7.43;;
75311;SDS011;63906;55.686;37.532;2023-11-19T22:08:19;17.83;;;7.43;;
75311;SDS011;63906;55.686;37.532;2023-11-19T22:13:20;17.40;;;7.25;;
75311;SDS011;63906;55.686;37.532;2023-11-19T22:18:21;16.67;;;7.45;;
75311;SDS011;63906;55.686;37.532;2023-11-19T22:29:38;15.63;;;6.82;;
75311;SDS011;63906;55.686;37.532;2023-11-19T22:42:18;17.58;;;7.50;;
75311;SDS011;63906;55.686;37.532;2023-11-19T22:48:47;16.38;;;7.53;;
75311;SDS011;63906;55.686;37.532;2023-11-19T23:01:34;18.55;;;7.82;;
75311;SDS011;63906;55.686;37.532;2023-11-19T23:08:15;17.60;;;8.88;;
75311;SDS011;63906;55.686;37.532;2023-11-19T23:13:18;16.65;;;7.88;;
75311;SDS011;63906;55.686;37.532;2023-11-19T23:38:48;14.25;;;7.53;;
75311;SDS011;63906;55.686;37.532;2023-11-19T23:44:18;13.20;;;7.32;;
75311;SDS011;63906;55.686;37.532;2023-11-19T23:49:21;13.68;;;6.47;;
75311;SDS011;63906;55.686;37.532;2023-11-19T23:54:30;12.10;;;6.00;;
75311;SDS011;63906;55.686;37.532;2023-11-19T23:59:41;18.45;;;6.72;;
